ETNS 200120Z AUTO 27013KT 5000 // ////// 13/12 Q1018 /// ETNS 200020Z AUTO 26013KT 2200 // ////// 15/14 Q1017 /// ETNS 192320Z AUTO 23007KT 3500 // ////// 15/15 Q1017 /// ETNS 192220Z AUTO 24005KT 3000 // ////// 16/14 Q1017 /// ETNS 192120Z AUTO 26007KT 3400 // ////// 16/15 Q1016 /// ETNS 192020Z AUTO 26011KT 3400 // ////// 17/15 Q1016 /// ETNS 191920Z AUTO 22007KT 3200 // ////// 17/16 Q1015 /// ETNS 191820Z AUTO 22003KT 3600 // ////// 18/16 Q1014 /// ETNS 191720Z AUTO 22005KT 3400 // ////// 18/16 Q1015 /// ETNS 191620Z AUTO 27015KT 3800 // ////// 21/15 Q1016 /// ETNS 191520Z 04005KT 9999 FEW030TCU BKN080 BKN120 22/17 Q1015 BLU FCST CNL ETNS 191420Z 03007KT 9999 FEW060 BKN130 24/17 Q1015 BLU BLU ETNS 191320Z 05008KT 9999 BKN080 SCT110 24/17 Q1016 BLU BLU ETNS 191220Z 35006KT 9999 SCT080 BKN110 23/17 Q1016 BLU BLU ETNS 191120Z 25007KT 9999 BKN160 SCT220 25/15 Q1017 BLU BLU+ BECMG BLU ETNS 191020Z 24006KT 9999 BKN180 24/15 Q1017 BLU BLU+ ETNS 190920Z 24009KT 9999 FEW100 SCT200 24/16 Q1017 BLU+BLU+ ETNS 190820Z 21007KT 9999 SCT100 SCT220 23/15 Q1017 BLU+BLU+ ETNS 190720Z 13005KT 8000 FEW030 SCT100 21/15 Q1017 BLU+BLU+ ETNS 190634Z 13004KT 5000 BR BKN090 18/15 Q1018 WHT WHT BECMG BLU+ ETNS 190620Z VRB02KT 4000 BR BKN090 BKN240 17/15 Q1018 GRN GRN BECMG BLU ETNS 190605Z 12002KT 3800 BR BKN090 BKN260 17/15 Q1018 GRN GRN BECMG BLU ETNS 190544Z 11002KT 3200 BR BKN090 BKN260 16/15 Q1018 YLO YLO BECMG BLU ETNS 190530Z VRB02KT 2000 BR SCT090 BKN260 16/14 Q1018 YLO YLO BECMG BLU ETNS 190520Z 20002KT 1500 R23////// BR SCT090 BKN260 16/14 Q1018 AMB RED BECMG BLU ETNS 190420Z VRB01KT 1300 BR FEW030 BKN260 15/14 Q1018 AMB RED BECMG BLU ETNS 190320Z 15004KT 1100 BR BKN260 15/14 Q1018 AMB ETNS 190220Z AUTO 20002KT 0900 // ////// 15/14 Q1018 /// ETNS 190120Z AUTO 22004KT 3400 // ////// 16/15 Q1018 /// ETNS 190020Z AUTO 24005KT 6000 // ////// 17/15 Q1018 /// ETNS 182320Z AUTO 15003KT 6000 // ////// 19/16 Q1018 /// ETNS 182220Z AUTO 20002KT 5000 // ////// 19/15 Q1018 /// ETNS 182120Z AUTO 13003KT 5000 // ////// 20/16 Q1018 /// ETNS 182020Z AUTO 10003KT 6000 // ////// 21/14 Q1019 /// ETNS 181920Z AUTO 14002KT 7000 // ////// 22/14 Q1019 /// ETNS 181820Z AUTO 20004KT 5000 // ////// 23/14 Q1019 /// ETNS 181720Z AUTO 19006KT 7000 // ////// 25/14 Q1019 /// ETNS 181620Z AUTO 19007KT 8000 // ////// 26/14 Q1019 /// ETNS 181520Z AUTO 20008KT 7000 // ////// 25/14 Q1020 /// ETNS 181500Z 19007KT 9999 FEW043 BKN320 26/15 Q1020 BLU+FCST CNL ETNS 181420Z 20008KT 9999 FEW043 SCT350 25/14 Q1020 BLU+BLU+

METAR Messwerte "SCHLESWIG(GER-NA" ETNS

Zurück zur Übersicht

Ortsname
Ländercode / m ü. NN
Zeit Temperatur Taupunkt Rel.
Luftfeuchte
Luftdruck:
Altimeter
NN
Station
Wind in Beaufort
(Knoten)
Sichtweite
(Meter)
Wolken
(Meter über Grund)
Wettererscheinung
SCHLESWIG(GER-NA
DE 22
Fr 20.05. 03:20131294 %1018
1018
1015
W 4 (13)5000  
SCHLESWIG(GER-NA
DE 22
Fr 20.05. 02:20151494 %1017
1017
1014
W 4 (13)2200  
SCHLESWIG(GER-NA
DE 22
Fr 20.05. 01:201515100 %1017
1017
1014
SW 3 (7)3500  
SCHLESWIG(GER-NA
DE 22
Fr 20.05. 00:20161488 %1017
1017
1014
WSW 2 (5)3000  
SCHLESWIG(GER-NA
DE 22
Do 19.05. 23:20161594 %1016
1016
1013
W 3 (7)3400  
SCHLESWIG(GER-NA
DE 22
Do 19.05. 22:20171588 %1016
1016
1013
W 4 (11)3400  
SCHLESWIG(GER-NA
DE 22
Do 19.05. 21:20171694 %1015
1015
1012
SW 3 (7)3200  
SCHLESWIG(GER-NA
DE 22
Do 19.05. 20:20181688 %1014
1014
1011
SW 2 (3)3600  
SCHLESWIG(GER-NA
DE 22
Do 19.05. 19:20181688 %1015
1015
1012
SW 2 (5)3400  
SCHLESWIG(GER-NA
DE 22
Do 19.05. 18:20211569 %1016
1016
1013
W 4 (15)3800  
SCHLESWIG(GER-NA
DE 22
Do 19.05. 17:20221773 %1015
1015
1012
NO 2 (5)>= 10000Stark bewölkt (3700)
Stark bewölkt (2400)
Leicht bewölkt (910)
 
SCHLESWIG(GER-NA
DE 22
Do 19.05. 16:20241765 %1015
1015
1012
NNO 3 (7)>= 10000Stark bewölkt (4000)
Leicht bewölkt (1800)
 
SCHLESWIG(GER-NA
DE 22
Do 19.05. 15:20241765 %1016
1016
1013
NO 3 (8)>= 10000Wolkig (3400)
Stark bewölkt (2400)
 
SCHLESWIG(GER-NA
DE 22
Do 19.05. 14:20231769 %1016
1016
1013
N 2 (6)>= 10000Stark bewölkt (3400)
Wolkig (2400)
 
SCHLESWIG(GER-NA
DE 22
Do 19.05. 13:20251554 %1017
1017
1014
WSW 3 (7)>= 10000Wolkig (6700)
Stark bewölkt (4900)
 
SCHLESWIG(GER-NA
DE 22
Do 19.05. 12:20241557 %1017
1017
1014
WSW 2 (6)>= 10000Stark bewölkt (5500) 
SCHLESWIG(GER-NA
DE 22
Do 19.05. 11:20241661 %1017
1017
1014
WSW 3 (9)>= 10000Wolkig (6100)
Leicht bewölkt (3000)
 
SCHLESWIG(GER-NA
DE 22
Do 19.05. 10:20231561 %1017
1017
1014
SSW 3 (7)>= 10000Wolkig (6700)
Wolkig (3000)
 
SCHLESWIG(GER-NA
DE 22
Do 19.05. 09:20211569 %1017
1017
1014
SO 2 (5)8000Wolkig (3000)
Leicht bewölkt (910)
 
SCHLESWIG(GER-NA
DE 22
Do 19.05. 08:34181583 %1018
1018
1015
SO 2 (4)5000Stark bewölkt (2700)Nebeldunst
SCHLESWIG(GER-NA
DE 22
Do 19.05. 08:20171588 %1018
1018
1015
Uml 1 (2)4000Stark bewölkt (7300)
Stark bewölkt (2700)
Nebeldunst
SCHLESWIG(GER-NA
DE 22
Do 19.05. 08:05171588 %1018
1018
1015
OSO 1 (2)3800Stark bewölkt (7900)
Stark bewölkt (2700)
Nebeldunst
SCHLESWIG(GER-NA
DE 22
Do 19.05. 07:44161594 %1018
1018
1015
OSO 1 (2)3200Stark bewölkt (7900)
Stark bewölkt (2700)
Nebeldunst
SCHLESWIG(GER-NA
DE 22
Do 19.05. 07:30161488 %1018
1018
1015
Uml 1 (2)2000Stark bewölkt (7900)
Wolkig (2700)
Nebeldunst
SCHLESWIG(GER-NA
DE 22
Do 19.05. 07:20161488 %1018
1018
1015
SSW 1 (2)1500Stark bewölkt (7900)
Wolkig (2700)
Nebeldunst
SCHLESWIG(GER-NA
DE 22
Do 19.05. 06:20151494 %1018
1018
1015
Uml 1 (1)1300Stark bewölkt (7900)
Leicht bewölkt (910)
Nebeldunst
SCHLESWIG(GER-NA
DE 22
Do 19.05. 05:20151494 %1018
1018
1015
SSO 2 (4)1100Stark bewölkt (7900)Nebeldunst
SCHLESWIG(GER-NA
DE 22
Do 19.05. 04:20151494 %1018
1018
1015
SSW 1 (2)900  
SCHLESWIG(GER-NA
DE 22
Do 19.05. 03:20161594 %1018
1018
1015
SW 2 (4)3400  
SCHLESWIG(GER-NA
DE 22
Do 19.05. 02:20171588 %1018
1018
1015
WSW 2 (5)6000  
SCHLESWIG(GER-NA
DE 22
Do 19.05. 01:20191683 %1018
1018
1015
SSO 2 (3)6000  
SCHLESWIG(GER-NA
DE 22
Do 19.05. 00:20191578 %1018
1018
1015
SSW 1 (2)5000  
SCHLESWIG(GER-NA
DE 22
Mi 18.05. 23:20201678 %1018
1018
1015
SO 2 (3)5000  
SCHLESWIG(GER-NA
DE 22
Mi 18.05. 22:20211464 %1019
1019
1016
O 2 (3)6000  
SCHLESWIG(GER-NA
DE 22
Mi 18.05. 21:20221460 %1019
1019
1016
SO 1 (2)7000  
SCHLESWIG(GER-NA
DE 22
Mi 18.05. 20:20231457 %1019
1019
1016
SSW 2 (4)5000  
SCHLESWIG(GER-NA
DE 22
Mi 18.05. 19:20251450 %1019
1019
1016
S 2 (6)7000  
SCHLESWIG(GER-NA
DE 22
Mi 18.05. 18:20261448 %1019
1019
1016
S 3 (7)8000  
SCHLESWIG(GER-NA
DE 22
Mi 18.05. 17:20251450 %1020
1020
1017
SSW 3 (8)7000  
SCHLESWIG(GER-NA
DE 22
Mi 18.05. 17:00261551 %1020
1020
1017
S 3 (7)>= 10000Stark bewölkt (9800)
Leicht bewölkt (1300)
 
SCHLESWIG(GER-NA
DE 22
Mi 18.05. 16:20251450 %1020
1020
1017
SSW 3 (8)>= 10000Wolkig (11000)
Leicht bewölkt (1300)
 

Altimeter: Einstellung am Altimeter (Höhenmesser), die Höhe 0 muss auf diesen Luftdruckwert zeigen, damit das Gerät die Stationshöhe richtig anzeigt.

NN: Luftdruck reduziert auf "Normal Null", auf Meereshöhe, dieser von der Temperatur abhängige Wert wird bisweilen unkorrekt einfach als "Luftdruck" bezeichnet. Eigentlich nur eine fiktive Größe, die es erlaubt, Stationen auf unterschiedlichen Höhen miteinander zu vergleichen.

Station: Realer Luftdruck an der Station.